createdAt,value
2018-06-24T00:00:06.449Z,0
2018-06-24T00:01:08.154Z,0
2018-06-24T00:02:09.899Z,0
2018-06-24T00:03:11.517Z,0
2018-06-24T00:04:13.123Z,0
2018-06-24T00:05:14.742Z,0
2018-06-24T00:06:16.351Z,0
2018-06-24T00:07:17.962Z,0
2018-06-24T00:08:19.575Z,0
2018-06-24T00:09:21.184Z,0
2018-06-24T00:10:22.801Z,0
2018-06-24T00:11:24.416Z,0
2018-06-24T00:12:26.027Z,0
2018-06-24T00:13:27.642Z,0
2018-06-24T00:14:30.083Z,0
2018-06-24T00:15:32.496Z,0
2018-06-24T00:16:34.987Z,0
2018-06-24T00:17:36.742Z,0
2018-06-24T00:18:38.939Z,0
2018-06-24T00:19:40.926Z,0
2018-06-24T00:20:42.825Z,0
2018-06-24T00:21:44.431Z,0
2018-06-24T00:22:46.421Z,0
2018-06-24T00:23:49.014Z,0
2018-06-24T00:24:50.810Z,0
2018-06-24T00:25:53.271Z,0
2018-06-24T00:26:55.465Z,0
2018-06-24T00:27:57.566Z,0
2018-06-24T00:28:59.755Z,0
2018-06-24T00:30:01.687Z,0
2018-06-24T00:31:03.295Z,0
2018-06-24T00:32:05.100Z,0
2018-06-24T00:33:06.721Z,0
2018-06-24T00:34:08.881Z,0
2018-06-24T00:35:10.565Z,0
2018-06-24T00:36:12.368Z,0
2018-06-24T00:37:14.140Z,0
2018-06-24T00:38:15.946Z,0
2018-06-24T00:39:17.696Z,0
2018-06-24T00:40:19.435Z,0
2018-06-24T00:41:21.145Z,0
2018-06-24T00:42:22.839Z,0
2018-06-24T00:43:24.525Z,0
2018-06-24T00:44:26.188Z,0
2018-06-24T00:45:27.935Z,0
2018-06-24T00:46:29.620Z,0
2018-06-24T00:47:31.455Z,0
2018-06-24T00:48:33.125Z,0
2018-06-24T00:49:34.835Z,0
2018-06-24T00:50:36.578Z,0
2018-06-24T00:51:38.314Z,0
2018-06-24T00:52:40.026Z,0
2018-06-24T00:53:41.761Z,0
2018-06-24T00:54:43.352Z,0
2018-06-24T00:55:44.969Z,0
2018-06-24T00:56:47.531Z,0
2018-06-24T00:57:50.409Z,0
2018-06-24T00:58:52.802Z,0
2018-06-24T00:59:55.365Z,0
2018-06-24T01:00:58.325Z,0
2018-06-24T01:02:00.815Z,0
2018-06-24T01:03:03.243Z,0
2018-06-24T01:04:05.460Z,0
2018-06-24T01:05:07.953Z,0
2018-06-24T01:06:11.024Z,0
2018-06-24T01:07:13.924Z,0
2018-06-24T01:08:15.561Z,0
2018-06-24T01:09:17.590Z,0
2018-06-24T01:10:19.965Z,0
2018-06-24T01:11:21.786Z,0
2018-06-24T01:12:23.394Z,0
2018-06-24T01:13:25.066Z,0
2018-06-24T01:14:26.676Z,0
2018-06-24T01:15:28.291Z,0
2018-06-24T01:16:30.597Z,0
2018-06-24T01:17:33.662Z,0
2018-06-24T01:18:39.052Z,0
2018-06-24T01:19:42.574Z,0
2018-06-24T01:20:44.857Z,0
2018-06-24T01:21:47.168Z,0
2018-06-24T01:22:49.222Z,0
2018-06-24T01:23:51.153Z,0
2018-06-24T01:24:53.800Z,0
2018-06-24T01:25:56.300Z,0
2018-06-24T01:26:58.654Z,0
2018-06-24T01:28:01.169Z,0
2018-06-24T01:29:03.209Z,0
2018-06-24T01:30:05.939Z,0
2018-06-24T01:31:07.557Z,0
2018-06-24T01:32:09.175Z,0
2018-06-24T01:33:11.605Z,0
2018-06-24T01:34:13.220Z,0
2018-06-24T01:35:14.834Z,0
2018-06-24T01:36:16.443Z,0
2018-06-24T01:37:19.440Z,0
2018-06-24T01:38:21.987Z,0
2018-06-24T01:39:25.592Z,0
2018-06-24T01:40:27.978Z,0
2018-06-24T01:41:29.528Z,0
2018-06-24T01:42:31.140Z,0
2018-06-24T01:43:32.746Z,0
2018-06-24T01:44:34.362Z,0
2018-06-24T01:45:35.973Z,0
2018-06-24T01:46:37.584Z,0
2018-06-24T01:47:39.207Z,0
2018-06-24T01:48:40.812Z,0
2018-06-24T01:49:42.430Z,0
2018-06-24T01:50:44.038Z,0
2018-06-24T01:51:45.647Z,0
2018-06-24T01:52:47.261Z,0
2018-06-24T01:53:48.871Z,0
2018-06-24T01:54:50.493Z,0
2018-06-24T01:55:52.098Z,0
2018-06-24T01:56:53.714Z,0
2018-06-24T01:57:55.323Z,0
2018-06-24T01:58:56.936Z,0
2018-06-24T01:59:58.547Z,0
2018-06-24T02:01:00.158Z,0
2018-06-24T02:02:01.776Z,0
2018-06-24T02:03:03.387Z,0
2018-06-24T02:04:04.994Z,0
2018-06-24T02:05:06.608Z,0
2018-06-24T02:06:08.220Z,0
2018-06-24T02:07:09.829Z,0
2018-06-24T02:08:11.449Z,0
2018-06-24T02:09:13.059Z,0
2018-06-24T02:10:14.670Z,0
2018-06-24T02:11:16.910Z,0
2018-06-24T02:12:18.515Z,0
2018-06-24T02:13:20.126Z,0
2018-06-24T02:14:21.745Z,0
2018-06-24T02:15:23.360Z,0
2018-06-24T02:16:24.973Z,0
2018-06-24T02:17:26.579Z,0
2018-06-24T02:18:28.186Z,0
2018-06-24T02:19:29.803Z,0
2018-06-24T02:20:31.416Z,0
2018-06-24T02:21:33.026Z,0
2018-06-24T02:22:34.646Z,0
2018-06-24T02:23:36.252Z,0
2018-06-24T02:24:37.868Z,0
2018-06-24T02:25:39.479Z,0
2018-06-24T02:26:41.089Z,0
2018-06-24T02:27:42.711Z,0
2018-06-24T02:28:44.310Z,0
2018-06-24T02:29:45.928Z,0
2018-06-24T02:30:47.536Z,0
2018-06-24T02:31:49.144Z,0
2018-06-24T02:32:50.762Z,0
2018-06-24T02:33:52.372Z,0
2018-06-24T02:34:53.987Z,0
2018-06-24T02:35:55.597Z,0
2018-06-24T02:36:57.214Z,0
2018-06-24T02:37:58.831Z,0
2018-06-24T02:39:00.454Z,0
2018-06-24T02:40:02.072Z,0
2018-06-24T02:41:03.673Z,4
2018-06-24T02:42:05.290Z,4
2018-06-24T02:43:06.901Z,4
2018-06-24T02:44:08.511Z,0
2018-06-24T02:45:10.135Z,4
2018-06-24T02:46:11.739Z,4
2018-06-24T02:47:13.356Z,4
2018-06-24T02:48:14.968Z,4
2018-06-24T02:49:16.575Z,8
2018-06-24T02:50:18.191Z,4
2018-06-24T02:51:19.801Z,12
2018-06-24T02:52:21.415Z,12
2018-06-24T02:53:23.033Z,12
2018-06-24T02:54:24.644Z,12
2018-06-24T02:55:26.255Z,16
2018-06-24T02:56:27.868Z,16
2018-06-24T02:57:29.480Z,24
2018-06-24T02:58:31.089Z,24
2018-06-24T02:59:32.708Z,28
2018-06-24T03:00:35.054Z,28
2018-06-24T03:01:36.661Z,32
2018-06-24T03:02:38.283Z,36
2018-06-24T03:03:39.904Z,36
2018-06-24T03:04:41.508Z,40
2018-06-24T03:05:43.127Z,44
2018-06-24T03:06:44.736Z,44
2018-06-24T03:07:46.353Z,52
2018-06-24T03:08:47.964Z,56
2018-06-24T03:09:49.579Z,60
2018-06-24T03:10:51.188Z,64
2018-06-24T03:11:52.808Z,68
2018-06-24T03:12:54.422Z,80
2018-06-24T03:13:56.034Z,88
2018-06-24T03:14:57.651Z,96
2018-06-24T03:15:59.262Z,108
2018-06-24T03:17:00.927Z,116
2018-06-24T03:18:02.492Z,128
2018-06-24T03:19:04.105Z,140
2018-06-24T03:20:05.724Z,148
2018-06-24T03:21:07.345Z,156
2018-06-24T03:22:08.958Z,168
2018-06-24T03:23:10.572Z,180
2018-06-24T03:24:12.185Z,192
2018-06-24T03:25:13.798Z,204
2018-06-24T03:26:15.415Z,220
2018-06-24T03:27:17.031Z,236
2018-06-24T03:28:18.649Z,248
2018-06-24T03:29:20.265Z,260
2018-06-24T03:30:21.877Z,276
2018-06-24T03:31:23.492Z,292
2018-06-24T03:32:25.107Z,304
2018-06-24T03:33:26.720Z,324
2018-06-24T03:34:28.342Z,344
2018-06-24T03:35:29.951Z,364
2018-06-24T03:36:31.568Z,392
2018-06-24T03:37:33.184Z,416
2018-06-24T03:38:34.798Z,444
2018-06-24T03:39:36.412Z,480
2018-06-24T03:40:38.024Z,520
2018-06-24T03:41:39.639Z,560
2018-06-24T03:42:41.262Z,596
2018-06-24T03:43:42.872Z,632
2018-06-24T03:44:44.488Z,668
2018-06-24T03:45:46.096Z,708
2018-06-24T03:46:47.718Z,756
2018-06-24T03:47:49.326Z,812
2018-06-24T03:48:50.949Z,872
2018-06-24T03:49:52.564Z,920
2018-06-24T03:50:54.178Z,960
2018-06-24T03:51:55.797Z,996
2018-06-24T03:52:57.411Z,1024
2018-06-24T03:53:59.022Z,1044
2018-06-24T03:55:00.644Z,1060
2018-06-24T03:56:02.261Z,1080
2018-06-24T03:57:03.886Z,1100
2018-06-24T03:58:05.570Z,1112
2018-06-24T03:59:07.115Z,1124
2018-06-24T04:00:08.738Z,1136
2018-06-24T04:01:10.352Z,1132
2018-06-24T04:02:11.984Z,1124
2018-06-24T04:03:13.590Z,1128
2018-06-24T04:04:15.210Z,1144
2018-06-24T04:05:16.823Z,1160
2018-06-24T04:06:18.444Z,1188
2018-06-24T04:07:20.059Z,1212
2018-06-24T04:08:21.681Z,1256
2018-06-24T04:09:23.300Z,1296
2018-06-24T04:10:24.923Z,1308
2018-06-24T04:11:26.542Z,1372
2018-06-24T04:12:28.159Z,1400
2018-06-24T04:13:29.772Z,1452
2018-06-24T04:14:31.390Z,1508
2018-06-24T04:15:33.007Z,1544
2018-06-24T04:16:34.628Z,1572
2018-06-24T04:17:36.242Z,1592
2018-06-24T04:18:37.864Z,1612
2018-06-24T04:19:39.476Z,1628
2018-06-24T04:20:41.092Z,1648
2018-06-24T04:21:42.714Z,1668
2018-06-24T04:22:44.329Z,1688
2018-06-24T04:23:45.944Z,1732
2018-06-24T04:24:47.561Z,1780
2018-06-24T04:25:49.200Z,1816
2018-06-24T04:26:50.800Z,1836
2018-06-24T04:27:52.419Z,1820
2018-06-24T04:28:54.038Z,1788
2018-06-24T04:29:55.658Z,1748
2018-06-24T04:30:57.270Z,1708
2018-06-24T04:31:58.899Z,1704
2018-06-24T04:33:00.516Z,1728
2018-06-24T04:34:02.133Z,1784
2018-06-24T04:35:03.755Z,1888
2018-06-24T04:36:05.368Z,2032
2018-06-24T04:37:06.985Z,2180
2018-06-24T04:38:08.606Z,2300
2018-06-24T04:39:10.222Z,2380
2018-06-24T04:40:11.841Z,2468
2018-06-24T04:41:13.456Z,2480
2018-06-24T04:42:15.078Z,2528
2018-06-24T04:43:16.692Z,2660
2018-06-24T04:44:18.314Z,2756
2018-06-24T04:45:19.931Z,2828
2018-06-24T04:46:21.548Z,2828
2018-06-24T04:47:23.173Z,2824
2018-06-24T04:48:24.784Z,2780
2018-06-24T04:49:26.405Z,2736
2018-06-24T04:50:28.020Z,2764
2018-06-24T04:51:29.641Z,2916
2018-06-24T04:52:31.256Z,3100
2018-06-24T04:53:32.877Z,3312
2018-06-24T04:54:34.494Z,3520
2018-06-24T04:55:36.114Z,3604
2018-06-24T04:56:37.727Z,3540
2018-06-24T04:57:39.348Z,3428
2018-06-24T04:58:40.968Z,3284
2018-06-24T04:59:42.578Z,3128
2018-06-24T05:00:44.201Z,3048
2018-06-24T05:01:45.822Z,3052
2018-06-24T05:02:47.441Z,3128
2018-06-24T05:03:49.061Z,3300
2018-06-24T05:04:50.677Z,3536
2018-06-24T05:05:52.291Z,3852
2018-06-24T05:06:53.916Z,4320
2018-06-24T05:07:55.537Z,4688
2018-06-24T05:08:57.154Z,4880
2018-06-24T05:09:58.771Z,4928
2018-06-24T05:11:00.396Z,4744
2018-06-24T05:12:02.009Z,4644
2018-06-24T05:13:03.625Z,4388
2018-06-24T05:14:05.251Z,3820
2018-06-24T05:15:06.866Z,3384
2018-06-24T05:16:08.490Z,3224
2018-06-24T05:17:10.103Z,3360
2018-06-24T05:18:11.723Z,3604
2018-06-24T05:19:13.339Z,3836
2018-06-24T05:20:14.961Z,3916
2018-06-24T05:21:16.577Z,4020
2018-06-24T05:22:18.197Z,4096
2018-06-24T05:23:19.818Z,4156
2018-06-24T05:24:21.431Z,4376
2018-06-24T05:25:23.054Z,4480
2018-06-24T05:26:24.677Z,4328
2018-06-24T05:27:26.300Z,4260
2018-06-24T05:28:27.910Z,4184
2018-06-24T05:29:29.531Z,4164
2018-06-24T05:30:31.170Z,4156
2018-06-24T05:31:32.768Z,4252
2018-06-24T05:32:34.387Z,4364
2018-06-24T05:33:36.001Z,4400
2018-06-24T05:34:37.623Z,4268
2018-06-24T05:35:39.243Z,4232
2018-06-24T05:36:40.865Z,4052
2018-06-24T05:37:42.486Z,4100
2018-06-24T05:38:44.102Z,4416
2018-06-24T05:39:45.717Z,4868
2018-06-24T05:40:47.337Z,5020
2018-06-24T05:41:48.962Z,5096
2018-06-24T05:42:50.575Z,5220
2018-06-24T05:43:52.198Z,5208
2018-06-24T05:44:53.820Z,4892
2018-06-24T05:45:55.435Z,5032
2018-06-24T05:46:57.057Z,5396
2018-06-24T05:47:58.673Z,5648
2018-06-24T05:49:00.297Z,5364
2018-06-24T05:50:01.914Z,5840
2018-06-24T05:51:03.537Z,5996
2018-06-24T05:52:05.159Z,6044
2018-06-24T05:53:06.774Z,6016
2018-06-24T05:54:08.396Z,6172
2018-06-24T05:55:10.017Z,6328
2018-06-24T05:56:11.637Z,6468
2018-06-24T05:57:13.258Z,6576
2018-06-24T05:58:14.877Z,6620
2018-06-24T05:59:16.500Z,6608
2018-06-24T06:00:18.115Z,6480
2018-06-24T06:01:19.740Z,6812
2018-06-24T06:02:21.355Z,7216
2018-06-24T06:03:22.974Z,7524
2018-06-24T06:04:24.598Z,7664
2018-06-24T06:05:26.221Z,6948
2018-06-24T06:06:27.838Z,7004
2018-06-24T06:07:29.455Z,8056
2018-06-24T06:08:31.073Z,8512
2018-06-24T06:09:32.690Z,8708
2018-06-24T06:10:34.315Z,8764
2018-06-24T06:11:35.931Z,8944
2018-06-24T06:12:37.573Z,9136
2018-06-24T06:13:39.269Z,9240
2018-06-24T06:14:40.884Z,9292
2018-06-24T06:15:42.510Z,9068
2018-06-24T06:16:44.123Z,9032
2018-06-24T06:17:45.748Z,8912
2018-06-24T06:18:47.364Z,9012
2018-06-24T06:19:48.989Z,9260
2018-06-24T06:20:50.608Z,9288
2018-06-24T06:21:52.378Z,9032
2018-06-24T06:22:53.851Z,8852
2018-06-24T06:23:55.467Z,8764
2018-06-24T06:24:57.090Z,8496
2018-06-24T06:25:58.709Z,8576
2018-06-24T06:27:00.335Z,8612
2018-06-24T06:28:01.954Z,8836
2018-06-24T06:29:03.577Z,8800
2018-06-24T06:30:05.196Z,8416
2018-06-24T06:31:06.813Z,7728
2018-06-24T06:32:08.440Z,7272
2018-06-24T06:33:10.056Z,7184
2018-06-24T06:34:11.681Z,7428
2018-06-24T06:35:13.304Z,7712
2018-06-24T06:36:14.921Z,7916
2018-06-24T06:37:16.552Z,8236
2018-06-24T06:38:18.158Z,8400
2018-06-24T06:39:19.778Z,8200
2018-06-24T06:40:21.399Z,8188
2018-06-24T06:41:23.021Z,8128
2018-06-24T06:42:24.642Z,8048
2018-06-24T06:43:26.266Z,8084
2018-06-24T06:44:27.886Z,8320
2018-06-24T06:45:29.644Z,8068
2018-06-24T06:46:31.130Z,7776
2018-06-24T06:47:32.747Z,7572
2018-06-24T06:48:34.369Z,7732
2018-06-24T06:49:35.995Z,8404
2018-06-24T06:50:37.614Z,8612
2018-06-24T06:51:39.230Z,9036
2018-06-24T06:52:40.854Z,9980
2018-06-24T06:53:42.475Z,10376
2018-06-24T06:54:44.100Z,9988
2018-06-24T06:55:45.719Z,10172
2018-06-24T06:56:47.348Z,10556
2018-06-24T06:57:49.046Z,10568
2018-06-24T06:58:50.592Z,10672
2018-06-24T06:59:52.209Z,10924
2018-06-24T07:00:53.835Z,10548
2018-06-24T07:01:55.453Z,11000
2018-06-24T07:02:57.076Z,11548
2018-06-24T07:03:58.701Z,11220
2018-06-24T07:05:00.316Z,11364
2018-06-24T07:06:01.944Z,11272
2018-06-24T07:07:03.568Z,10720
2018-06-24T07:08:05.184Z,9880
2018-06-24T07:09:06.806Z,9680
2018-06-24T07:10:08.432Z,9688
2018-06-24T07:11:10.052Z,9632
2018-06-24T07:12:11.667Z,9188
2018-06-24T07:13:13.291Z,8776
2018-06-24T07:14:14.907Z,8568
2018-06-24T07:15:16.529Z,8744
2018-06-24T07:16:18.149Z,9096
2018-06-24T07:17:19.772Z,9496
2018-06-24T07:18:21.397Z,9556
2018-06-24T07:19:23.021Z,9392
2018-06-24T07:20:24.636Z,9632
2018-06-24T07:21:26.259Z,9788
2018-06-24T07:22:27.881Z,9692
2018-06-24T07:23:29.502Z,9460
2018-06-24T07:24:31.124Z,9364
2018-06-24T07:25:32.750Z,9384
2018-06-24T07:26:34.365Z,9524
2018-06-24T07:27:35.989Z,8916
2018-06-24T07:28:37.612Z,8144
2018-06-24T07:29:39.233Z,7288
2018-06-24T07:30:40.860Z,6352
2018-06-24T07:31:42.488Z,6732
2018-06-24T07:32:44.111Z,6280
2018-06-24T07:33:45.848Z,5728
2018-06-24T07:34:47.352Z,5448
2018-06-24T07:35:48.969Z,5692
2018-06-24T07:36:52.172Z,6080
2018-06-24T07:37:57.325Z,5984
2018-06-24T07:39:03.898Z,5912
2018-06-24T07:40:05.465Z,5728
2018-06-24T07:41:07.088Z,6096
2018-06-24T07:42:08.707Z,6340
2018-06-24T07:43:10.330Z,6668
2018-06-24T07:44:11.951Z,7020
2018-06-24T07:45:13.573Z,7336
2018-06-24T07:46:15.198Z,7848
2018-06-24T07:47:16.858Z,8644
2018-06-24T07:48:18.478Z,9516
2018-06-24T07:49:20.101Z,10172
2018-06-24T07:50:21.725Z,10820
2018-06-24T07:51:23.349Z,11336
2018-06-24T07:52:25.187Z,11752
2018-06-24T07:53:26.808Z,12108
2018-06-24T07:54:28.438Z,12736
2018-06-24T07:55:30.058Z,12832
2018-06-24T07:56:31.881Z,11928
2018-06-24T07:57:33.502Z,11672
2018-06-24T07:58:35.124Z,11636
2018-06-24T07:59:36.750Z,11884
2018-06-24T08:00:38.390Z,12452
2018-06-24T08:01:40.022Z,13028
2018-06-24T08:02:41.645Z,13124
2018-06-24T08:03:43.285Z,12980
2018-06-24T08:04:44.907Z,12964
2018-06-24T08:05:46.529Z,12592
2018-06-24T08:06:48.157Z,12364
2018-06-24T08:07:49.786Z,11992
2018-06-24T08:08:51.416Z,11552
2018-06-24T08:09:53.034Z,11232
2018-06-24T08:10:54.663Z,11388
2018-06-24T08:11:56.286Z,12260
2018-06-24T08:12:57.909Z,13220
2018-06-24T08:13:59.865Z,13788
2018-06-24T08:15:01.888Z,14596
2018-06-24T08:16:03.510Z,15476
2018-06-24T08:17:05.133Z,16080
2018-06-24T08:18:06.761Z,15488
2018-06-24T08:19:08.381Z,15208
2018-06-24T08:20:10.010Z,14836
2018-06-24T08:21:11.633Z,14420
2018-06-24T08:22:13.254Z,15408
2018-06-24T08:23:14.879Z,15988
2018-06-24T08:24:16.510Z,15016
2018-06-24T08:25:18.133Z,14620
2018-06-24T08:26:19.754Z,15408
2018-06-24T08:27:21.382Z,16896
2018-06-24T08:28:23.105Z,18496
2018-06-24T08:29:26.249Z,19040
2018-06-24T08:30:27.930Z,19200
2018-06-24T08:31:29.562Z,20928
2018-06-24T08:32:31.180Z,22688
2018-06-24T08:33:32.807Z,23584
2018-06-24T08:34:34.429Z,20736
2018-06-24T08:35:36.057Z,23136
2018-06-24T08:36:37.851Z,22688
2018-06-24T08:37:39.479Z,22048
2018-06-24T08:38:41.099Z,19168
2018-06-24T08:39:42.725Z,18496
2018-06-24T08:40:44.353Z,18912
2018-06-24T08:41:45.978Z,22784
2018-06-24T08:42:47.606Z,24736
2018-06-24T08:43:49.238Z,24544
2018-06-24T08:44:50.864Z,25440
2018-06-24T08:45:52.488Z,28992
2018-06-24T08:46:54.111Z,23552
2018-06-24T08:47:55.737Z,19264
2018-06-24T08:48:57.370Z,18432
2018-06-24T08:49:59.002Z,16672
2018-06-24T08:51:00.628Z,10804
2018-06-24T08:52:02.273Z,14152
2018-06-24T08:53:03.901Z,13936
2018-06-24T08:54:05.529Z,13696
2018-06-24T08:55:07.194Z,13728
2018-06-24T08:56:08.826Z,13960
2018-06-24T08:57:10.454Z,13596
2018-06-24T08:58:13.027Z,13784
2018-06-24T08:59:14.653Z,14148
2018-06-24T09:00:16.276Z,14588
2018-06-24T09:01:17.905Z,14840
2018-06-24T09:02:19.528Z,13932
2018-06-24T09:03:21.161Z,12964
2018-06-24T09:04:22.799Z,11408
2018-06-24T09:05:24.417Z,10636
2018-06-24T09:06:26.045Z,10468
2018-06-24T09:07:27.662Z,11260
2018-06-24T09:08:29.285Z,12148
2018-06-24T09:09:30.914Z,12784
2018-06-24T09:10:32.534Z,8384
2018-06-24T09:11:34.160Z,12448
2018-06-24T09:12:35.792Z,11764
2018-06-24T09:13:37.428Z,10492
2018-06-24T09:14:39.047Z,9204
2018-06-24T09:15:40.680Z,8560
2018-06-24T09:16:42.290Z,8404
2018-06-24T09:17:43.913Z,8432
2018-06-24T09:18:45.531Z,9044
2018-06-24T09:19:47.158Z,10312
2018-06-24T09:20:48.787Z,11912
2018-06-24T09:21:50.409Z,12812
2018-06-24T09:22:52.038Z,13048
2018-06-24T09:23:53.656Z,13432
2018-06-24T09:24:55.280Z,12900
2018-06-24T09:25:56.908Z,12536
2018-06-24T09:26:58.533Z,12316
2018-06-24T09:28:00.157Z,11592
2018-06-24T09:29:01.779Z,10632
2018-06-24T09:30:03.404Z,10108
2018-06-24T09:31:05.030Z,10348
2018-06-24T09:32:06.653Z,11104
2018-06-24T09:33:08.276Z,12652
2018-06-24T09:34:09.906Z,14844
2018-06-24T09:35:11.531Z,16420
2018-06-24T09:36:13.156Z,19296
2018-06-24T09:37:14.777Z,24512
2018-06-24T09:38:16.404Z,24096
2018-06-24T09:39:18.025Z,25312
2018-06-24T09:40:19.655Z,26016
2018-06-24T09:41:21.277Z,35232
2018-06-24T09:42:22.907Z,37984
2018-06-24T09:43:24.536Z,43040
2018-06-24T09:44:26.151Z,42336
2018-06-24T09:45:27.776Z,33856
2018-06-24T09:46:29.400Z,37344
2018-06-24T09:47:31.026Z,41408
2018-06-24T09:48:32.653Z,35424
2018-06-24T09:49:34.285Z,29536
2018-06-24T09:50:35.909Z,32224
2018-06-24T09:51:37.539Z,30432
2018-06-24T09:52:39.171Z,35040
2018-06-24T09:53:40.972Z,36736
2018-06-24T09:54:42.598Z,43936
2018-06-24T09:55:44.426Z,46048
2018-06-24T09:56:46.049Z,22048
2018-06-24T09:57:47.680Z,29568
2018-06-24T09:58:49.304Z,33056
2018-06-24T09:59:50.934Z,22368
2018-06-24T10:00:52.558Z,28672
2018-06-24T10:01:54.191Z,45984
2018-06-24T10:02:55.822Z,47648
2018-06-24T10:03:57.451Z,59424
2018-06-24T10:04:59.078Z,65888
2018-06-24T10:06:00.699Z,57440
2018-06-24T10:07:02.335Z,35040
2018-06-24T10:08:03.970Z,49600
2018-06-24T10:09:05.599Z,35200
2018-06-24T10:10:07.233Z,23136
2018-06-24T10:11:08.891Z,19264
2018-06-24T10:12:10.487Z,19904
2018-06-24T10:13:12.117Z,22880
2018-06-24T10:14:13.744Z,25920
2018-06-24T10:15:15.379Z,25440
2018-06-24T10:16:17.011Z,30240
2018-06-24T10:17:18.643Z,34080
2018-06-24T10:18:20.277Z,38720
2018-06-24T10:19:21.905Z,53824
2018-06-24T10:20:23.533Z,33280
2018-06-24T10:21:25.169Z,24544
2018-06-24T10:22:26.797Z,25952
2018-06-24T10:23:28.430Z,24000
2018-06-24T10:24:30.058Z,23808
2018-06-24T10:25:31.693Z,22560
2018-06-24T10:26:33.319Z,21344
2018-06-24T10:27:34.955Z,25024
2018-06-24T10:28:36.588Z,25824
2018-06-24T10:29:38.216Z,23872
2018-06-24T10:30:39.852Z,24352
2018-06-24T10:31:41.484Z,24608
2018-06-24T10:32:43.116Z,22912
2018-06-24T10:33:44.740Z,20704
2018-06-24T10:34:46.367Z,19168
2018-06-24T10:35:47.998Z,17920
2018-06-24T10:36:49.629Z,17056
2018-06-24T10:37:51.286Z,17088
2018-06-24T10:38:52.921Z,18368
2018-06-24T10:39:54.550Z,19776
2018-06-24T10:40:56.181Z,20352
2018-06-24T10:41:57.811Z,20512
2018-06-24T10:42:59.458Z,21248
2018-06-24T10:44:01.086Z,20064
2018-06-24T10:45:02.713Z,19648
2018-06-24T10:46:04.349Z,20128
2018-06-24T10:47:05.974Z,19584
2018-06-24T10:48:07.611Z,20288
2018-06-24T10:49:09.230Z,23360
2018-06-24T10:50:10.855Z,25952
2018-06-24T10:51:12.488Z,30464
2018-06-24T10:52:14.116Z,32544
2018-06-24T10:53:15.746Z,36672
2018-06-24T10:54:17.377Z,45792
2018-06-24T10:55:19.002Z,38592
2018-06-24T10:56:20.629Z,26560
2018-06-24T10:57:22.260Z,24128
2018-06-24T10:58:23.885Z,24448
2018-06-24T10:59:25.516Z,27520
2018-06-24T11:00:27.148Z,27744
2018-06-24T11:01:28.774Z,31104
2018-06-24T11:02:30.404Z,30720
2018-06-24T11:03:32.037Z,27584
2018-06-24T11:04:33.660Z,21600
2018-06-24T11:05:35.294Z,21152
2018-06-24T11:06:36.918Z,20576
2018-06-24T11:07:38.547Z,21024
2018-06-24T11:08:40.181Z,23392
2018-06-24T11:09:41.813Z,25312
2018-06-24T11:10:43.437Z,27520
2018-06-24T11:11:45.066Z,32672
2018-06-24T11:12:46.692Z,32576
2018-06-24T11:13:48.319Z,26240
2018-06-24T11:14:49.952Z,24096
2018-06-24T11:15:51.579Z,24992
2018-06-24T11:16:53.208Z,24928
2018-06-24T11:17:54.835Z,25344
2018-06-24T11:18:56.464Z,24992
2018-06-24T11:19:58.095Z,22720
2018-06-24T11:20:59.721Z,21664
2018-06-24T11:22:01.358Z,19168
2018-06-24T11:23:02.982Z,17664
2018-06-24T11:24:04.619Z,18240
2018-06-24T11:25:06.238Z,20288
2018-06-24T11:26:07.863Z,21632
2018-06-24T11:27:09.496Z,24096
2018-06-24T11:28:11.121Z,22976
2018-06-24T11:29:12.751Z,20640
2018-06-24T11:30:14.379Z,19744
2018-06-24T11:31:16.012Z,19456
2018-06-24T11:32:17.642Z,18144
2018-06-24T11:33:19.278Z,14964
2018-06-24T11:34:20.907Z,13992
2018-06-24T11:35:22.531Z,13500
2018-06-24T11:36:24.159Z,12720
2018-06-24T11:37:25.793Z,12480
2018-06-24T11:38:27.417Z,13444
2018-06-24T11:39:29.049Z,13868
2018-06-24T11:40:30.671Z,13976
2018-06-24T11:41:32.361Z,13916
2018-06-24T11:42:33.989Z,13924
2018-06-24T11:43:35.615Z,13504
2018-06-24T11:44:37.248Z,13120
2018-06-24T11:45:38.870Z,12636
2018-06-24T11:46:40.496Z,12460
2018-06-24T11:47:42.127Z,12300
2018-06-24T11:48:43.750Z,12028
2018-06-24T11:49:45.380Z,12280
2018-06-24T11:50:47.010Z,12276
2018-06-24T11:51:48.633Z,11808
2018-06-24T11:52:50.263Z,11980
2018-06-24T11:53:51.886Z,12300
2018-06-24T11:54:54.220Z,11960
2018-06-24T11:55:55.845Z,11792
2018-06-24T11:56:57.523Z,11176
2018-06-24T11:57:59.098Z,11036
2018-06-24T11:59:00.732Z,11304
2018-06-24T12:00:02.355Z,11640
2018-06-24T12:01:03.977Z,11800
2018-06-24T12:02:05.656Z,11700
2018-06-24T12:03:07.227Z,11376
2018-06-24T12:04:08.905Z,11012
2018-06-24T12:05:10.481Z,11384
2018-06-24T12:06:12.116Z,11212
2018-06-24T12:07:13.742Z,11688
2018-06-24T12:08:15.362Z,12244
2018-06-24T12:09:16.997Z,12300
2018-06-24T12:10:18.615Z,12276
2018-06-24T12:11:20.246Z,12528
2018-06-24T12:12:21.870Z,13160
2018-06-24T12:13:23.496Z,13416
2018-06-24T12:14:25.127Z,13332
2018-06-24T12:15:26.755Z,13496
2018-06-24T12:16:28.375Z,14580
2018-06-24T12:17:30.006Z,15112
2018-06-24T12:18:31.628Z,14920
2018-06-24T12:19:38.339Z,14476
2018-06-24T12:20:39.940Z,14180
2018-06-24T12:21:41.556Z,14172
2018-06-24T12:22:43.205Z,14836
2018-06-24T12:23:44.848Z,15040
2018-06-24T12:24:46.477Z,15684
2018-06-24T12:25:48.099Z,16232
2018-06-24T12:26:49.854Z,16272
2018-06-24T12:27:51.504Z,16336
2018-06-24T12:28:53.128Z,17184
2018-06-24T12:29:54.799Z,17056
2018-06-24T12:30:56.422Z,16424
2018-06-24T12:31:58.409Z,16800
2018-06-24T12:33:00.396Z,18048
2018-06-24T12:34:01.996Z,18624
2018-06-24T12:35:03.622Z,17216
2018-06-24T12:36:05.248Z,15232
2018-06-24T12:37:06.868Z,13964
2018-06-24T12:38:08.499Z,13448
2018-06-24T12:39:10.240Z,13716
2018-06-24T12:40:11.869Z,12852
2018-06-24T12:41:13.496Z,11956
2018-06-24T12:42:15.126Z,11180
2018-06-24T12:43:16.745Z,10956
2018-06-24T12:44:18.369Z,10500
2018-06-24T12:45:19.996Z,9840
2018-06-24T12:46:24.258Z,9132
2018-06-24T12:47:25.885Z,8868
2018-06-24T12:48:27.738Z,8968
2018-06-24T12:49:29.549Z,9332
2018-06-24T12:50:31.170Z,8900
2018-06-24T12:51:32.795Z,8688
2018-06-24T12:52:34.411Z,8884
2018-06-24T12:53:36.289Z,9124
2018-06-24T12:54:38.255Z,9364
2018-06-24T12:55:39.859Z,9324
2018-06-24T12:56:41.489Z,9144
2018-06-24T12:57:43.108Z,8712
2018-06-24T12:58:44.850Z,8652
2018-06-24T12:59:46.575Z,7924
2018-06-24T13:00:49.149Z,7972
2018-06-24T13:01:50.385Z,8616
2018-06-24T13:02:52.018Z,8604
2018-06-24T13:03:53.642Z,8464
2018-06-24T13:04:55.266Z,8112
2018-06-24T13:05:56.889Z,7916
2018-06-24T13:06:58.513Z,7568
2018-06-24T13:08:00.132Z,7332
2018-06-24T13:09:01.755Z,7680
2018-06-24T13:10:03.384Z,8240
2018-06-24T13:11:05.007Z,8728
2018-06-24T13:12:06.628Z,8652
2018-06-24T13:13:08.249Z,8156
2018-06-24T13:14:09.884Z,7708
2018-06-24T13:15:11.487Z,7432
2018-06-24T13:16:13.114Z,7328
2018-06-24T13:17:14.740Z,7608
2018-06-24T13:18:16.361Z,8060
2018-06-24T13:19:17.980Z,8336
2018-06-24T13:20:19.601Z,8236
2018-06-24T13:21:21.278Z,8184
2018-06-24T13:22:22.851Z,8412
2018-06-24T13:23:24.472Z,8384
2018-06-24T13:24:26.099Z,8340
2018-06-24T13:25:27.725Z,8000
2018-06-24T13:26:29.343Z,8188
2018-06-24T13:27:30.969Z,8016
2018-06-24T13:28:32.588Z,8028
2018-06-24T13:29:34.219Z,7896
2018-06-24T13:30:35.836Z,8060
2018-06-24T13:31:37.468Z,8116
2018-06-24T13:32:39.086Z,7828
2018-06-24T13:33:40.704Z,7484
2018-06-24T13:34:42.327Z,7596
2018-06-24T13:35:43.948Z,7648
2018-06-24T13:36:45.567Z,6860
2018-06-24T13:37:47.189Z,6880
2018-06-24T13:38:48.819Z,7672
2018-06-24T13:39:50.446Z,8268
2018-06-24T13:40:52.062Z,8968
2018-06-24T13:41:53.688Z,9736
2018-06-24T13:42:55.308Z,10312
2018-06-24T13:43:56.929Z,10176
2018-06-24T13:44:58.575Z,9560
2018-06-24T13:46:00.199Z,9052
2018-06-24T13:47:01.821Z,9152
2018-06-24T13:48:03.443Z,9252
2018-06-24T13:49:05.068Z,8624
2018-06-24T13:50:06.685Z,7920